Aérodrome :
LOGIN :

S'inscrire | Disclaimer

   EN    FR    IT 

 










Légende :    VFR   VFR Marginal   IFR   IFR Intensif   IFR Très Intensif
Visi : 
Plafond : 
>= 8 km
>= 3000ft
5 à 8 km
1000 à 3000 ft
1500m à 5 km
500 à 1000 ft
800 à 1500m
200 à 500 ft
< 800m
< 200 ft
Symboles :   Orages  Brouillard  Fortes neiges  Fortes précipitations  Vent > 20 kt
SIGMETs :   Divers  Orages  Givrage  Turbulence  Onde Orograph.  Cendres Volcan.






- Altitude de l'aérodrome : 1906 ft
- Code IATA : INN


LOWI - Innsbruck

DERNIER METAR :
  • 221450Z VRB02KT 9999 SCT050 BKN070 FEW070TCU 14/04 Q1019 TEMPO 28012KT SHRA

METARs EXPIRÉS :
  • 221420Z VRB02KT 9999 SCT050 BKN070 13/04 Q1020 NOSIG
  • 221350Z 14006KT 110V180 9999 SCT050 BKN070 12/04 Q1020 NOSIG
  • 221320Z 06009KT 9999 -SHRA SCT050 BKN070 11/06 Q1019 RERA NOSIG
  • 221250Z 02014KT 9999 -SHRA SCT050 BKN070 FEW070TCU 13/04 Q1019 TEMPO VRB15G25KT SHRA
  • 221220Z 09005KT 010V130 9999 SCT050 SCT070 FEW070TCU 15/03 Q1019 TEMPO VRB15KT SHRA

TAF TAF LOWI
Valide du 22 à 12h jusqu'au 23 à 12h UTC


221115Z 2212/2312 08006KT 9999 SCT070 TX16/2213Z TN04/2304Z
TEMPO 2212/2216 VRB12G25KT SHRA FEW050CB BKN070
PROB30
TEMPO 2212/2214 TSRA



MET'MAP, la Météo Aéronautique d'un coup d'oeil ! - Copyright ORBIFLY Décembre 2007 - Disclaimer

ORBIFLY MET'MAP TEAM :

Programmation & Développement : Alexandra Zaïnal
Sur une idée originale de : Baudouin d'Aumeries
Assistance à la programmation : Marc-Olivier Méhu
Soutien technique & logistique : Manuel Goepfert

Contact : metmap@orbifly.com




SOURCES & CREDITS :

   NOAA